createdAt,value
2023-04-02T00:00:20.159Z,6.93
2023-04-02T00:03:01.533Z,7.22
2023-04-02T00:05:52.538Z,6.90
2023-04-02T00:08:26.634Z,5.65
2023-04-02T00:10:55.562Z,5.80
2023-04-02T00:13:31.713Z,6.80
2023-04-02T00:16:03.639Z,6.93
2023-04-02T00:18:34.419Z,6.05
2023-04-02T00:21:13.148Z,6.30
2023-04-02T00:23:43.911Z,5.43
2023-04-02T00:26:29.001Z,5.15
2023-04-02T00:28:58.371Z,6.00
2023-04-02T00:31:27.994Z,5.82
2023-04-02T00:33:56.269Z,5.45
2023-04-02T00:38:59.930Z,6.07
2023-04-02T00:41:32.157Z,5.43
2023-04-02T00:44:01.193Z,6.15
2023-04-02T00:46:35.174Z,5.00
2023-04-02T00:49:09.216Z,5.93
2023-04-02T00:51:39.250Z,5.97
2023-04-02T00:54:18.891Z,5.60
2023-04-02T00:56:48.545Z,6.97
2023-04-02T00:59:25.686Z,5.28
2023-04-02T01:02:01.855Z,5.65
2023-04-02T01:04:34.572Z,5.88
2023-04-02T01:07:10.661Z,6.35
2023-04-02T01:09:58.427Z,5.22
2023-04-02T01:12:48.514Z,5.28
2023-04-02T01:15:21.351Z,5.90
2023-04-02T01:18:26.671Z,6.78
2023-04-02T01:21:22.233Z,6.35
2023-04-02T01:24:00.856Z,6.40
2023-04-02T01:26:44.834Z,5.60
2023-04-02T01:29:20.703Z,5.97
2023-04-02T01:31:50.854Z,5.70
2023-04-02T01:34:20.866Z,5.78
2023-04-02T01:37:04.039Z,5.95
2023-04-02T01:39:43.924Z,5.35
2023-04-02T01:42:20.968Z,6.22
2023-04-02T01:44:52.418Z,6.40
2023-04-02T01:47:24.590Z,5.90
2023-04-02T01:49:57.058Z,6.10
2023-04-02T01:52:35.726Z,6.32
2023-04-02T01:55:04.865Z,6.55
2023-04-02T01:57:33.405Z,5.85
2023-04-02T02:00:08.254Z,6.28
2023-04-02T02:02:37.021Z,6.03
2023-04-02T02:05:05.384Z,6.05
2023-04-02T02:07:33.054Z,5.35
2023-04-02T02:10:00.829Z,5.28
2023-04-02T02:12:27.920Z,5.53
2023-04-02T02:14:55.325Z,5.80
2023-04-02T02:17:28.124Z,5.22
2023-04-02T02:20:00.338Z,5.28
2023-04-02T02:22:34.044Z,5.97
2023-04-02T02:25:05.439Z,6.00
2023-04-02T02:27:47.205Z,5.55
2023-04-02T02:30:18.376Z,4.88
2023-04-02T02:32:56.281Z,4.28
2023-04-02T02:35:28.997Z,4.85
2023-04-02T02:38:13.104Z,4.53
2023-04-02T02:40:45.490Z,4.65
2023-04-02T02:43:15.198Z,5.13
2023-04-02T02:45:44.333Z,6.30
2023-04-02T02:48:16.380Z,4.95
2023-04-02T02:50:44.680Z,4.70
2023-04-02T02:53:19.164Z,5.60
2023-04-02T02:58:20.403Z,5.13
2023-04-02T03:00:48.426Z,4.75
2023-04-02T03:03:22.029Z,5.25
2023-04-02T03:05:53.426Z,5.47
2023-04-02T03:08:28.579Z,5.80
2023-04-02T03:11:02.901Z,6.15
2023-04-02T03:13:33.225Z,5.65
2023-04-02T03:16:09.427Z,6.10
2023-04-02T03:18:45.843Z,5.82
2023-04-02T03:21:26.739Z,5.85
2023-04-02T03:24:00.688Z,5.68
2023-04-02T03:26:38.299Z,5.93
2023-04-02T03:29:14.038Z,5.88
2023-04-02T03:31:44.943Z,5.78
2023-04-02T03:34:24.134Z,5.13
2023-04-02T03:36:58.112Z,4.70
2023-04-02T03:39:33.407Z,4.63
2023-04-02T03:42:06.182Z,4.70
2023-04-02T03:44:45.894Z,5.35
2023-04-02T03:47:19.229Z,5.50
2023-04-02T03:49:53.554Z,5.18
2023-04-02T03:52:25.724Z,5.43
2023-04-02T03:54:56.974Z,6.03
2023-04-02T03:57:30.217Z,5.53
2023-04-02T04:00:04.908Z,5.55
2023-04-02T04:02:42.869Z,5.22
2023-04-02T04:05:24.324Z,4.93
2023-04-02T04:07:55.517Z,5.93
2023-04-02T04:10:25.842Z,5.00
2023-04-02T04:12:56.168Z,5.00
2023-04-02T04:15:28.946Z,5.85
2023-04-02T04:18:02.655Z,5.70
2023-04-02T04:20:40.498Z,5.45
2023-04-02T04:23:19.965Z,4.70
2023-04-02T04:25:50.699Z,5.05
2023-04-02T04:28:26.592Z,5.05
2023-04-02T04:31:00.981Z,4.35
2023-04-02T04:33:34.753Z,5.28
2023-04-02T04:36:06.782Z,5.10
2023-04-02T04:38:39.328Z,5.30
2023-04-02T04:41:16.152Z,5.85
2023-04-02T04:43:48.457Z,4.30
2023-04-02T04:46:23.515Z,4.28
2023-04-02T04:48:55.861Z,4.55
2023-04-02T04:51:32.638Z,5.10
2023-04-02T04:54:01.418Z,5.90
2023-04-02T04:56:32.732Z,3.78
2023-04-02T04:59:33.451Z,4.00
2023-04-02T05:02:07.856Z,4.07
2023-04-02T05:07:11.030Z,4.22
2023-04-02T05:09:43.165Z,4.15
2023-04-02T05:12:19.634Z,4.82
2023-04-02T05:14:54.098Z,4.38
2023-04-02T05:19:56.951Z,3.38
2023-04-02T05:22:31.325Z,3.90
2023-04-02T05:25:19.972Z,4.60
2023-04-02T05:27:53.487Z,4.18
2023-04-02T05:30:40.538Z,3.45
2023-04-02T05:33:21.765Z,3.63
2023-04-02T05:35:57.815Z,3.53
2023-04-02T05:38:31.423Z,4.40
2023-04-02T05:41:05.559Z,3.58
2023-04-02T05:43:37.276Z,4.18
2023-04-02T05:46:14.288Z,3.22
2023-04-02T05:48:44.282Z,3.75
2023-04-02T05:51:19.101Z,4.57
2023-04-02T05:53:56.118Z,3.80
2023-04-02T05:56:28.761Z,3.03
2023-04-02T05:59:08.725Z,3.20
2023-04-02T06:01:45.770Z,3.67
2023-04-02T06:04:21.456Z,2.63
2023-04-02T06:07:01.463Z,3.83
2023-04-02T06:09:39.507Z,3.85
2023-04-02T06:12:22.826Z,4.50
2023-04-02T06:14:50.544Z,3.33
2023-04-02T06:17:20.377Z,3.45
2023-04-02T06:19:49.206Z,3.25
2023-04-02T06:22:24.353Z,2.50
2023-04-02T06:24:57.928Z,2.72
2023-04-02T06:27:27.008Z,3.28
2023-04-02T06:30:02.215Z,3.15
2023-04-02T06:32:29.983Z,2.53
2023-04-02T06:34:57.357Z,2.75
2023-04-02T06:37:30.575Z,2.63
2023-04-02T06:40:01.650Z,2.42
2023-04-02T06:42:35.261Z,2.75
2023-04-02T06:45:03.192Z,2.65
2023-04-02T06:47:34.194Z,2.75
2023-04-02T06:53:21.901Z,2.33
2023-04-02T06:55:53.226Z,2.35
2023-04-02T06:58:27.165Z,2.38
2023-04-02T07:00:55.315Z,2.13
2023-04-02T07:03:28.796Z,2.55
2023-04-02T07:05:57.125Z,3.33
2023-04-02T07:08:24.615Z,2.53
2023-04-02T07:10:53.364Z,3.28
2023-04-02T07:13:34.298Z,2.80
2023-04-02T07:16:01.523Z,3.00
2023-04-02T07:18:31.081Z,2.70
2023-04-02T07:20:58.658Z,2.50
2023-04-02T07:23:26.828Z,2.42
2023-04-02T07:25:57.051Z,1.88
2023-04-02T07:28:25.419Z,2.88
2023-04-02T07:30:52.892Z,2.67
2023-04-02T07:33:22.220Z,1.80
2023-04-02T07:35:53.278Z,1.98
2023-04-02T07:38:21.090Z,2.28
2023-04-02T07:40:48.380Z,2.53
2023-04-02T07:43:17.342Z,2.10
2023-04-02T07:45:45.931Z,2.00
2023-04-02T07:48:15.001Z,2.58
2023-04-02T07:50:42.483Z,1.88
2023-04-02T07:53:27.752Z,2.20
2023-04-02T07:55:57.481Z,2.20
2023-04-02T07:58:26.425Z,1.90
2023-04-02T08:00:55.670Z,2.22
2023-04-02T08:03:23.601Z,2.05
2023-04-02T08:05:53.245Z,2.53
2023-04-02T08:08:24.771Z,2.25
2023-04-02T08:10:52.469Z,1.98
2023-04-02T08:13:23.415Z,2.63
2023-04-02T08:15:52.007Z,2.10
2023-04-02T08:18:22.737Z,2.33
2023-04-02T08:20:50.470Z,2.88
2023-04-02T08:23:18.146Z,2.05
2023-04-02T08:25:45.707Z,2.47
2023-04-02T08:28:13.514Z,2.08
2023-04-02T08:30:44.304Z,2.33
2023-04-02T08:33:13.117Z,2.75
2023-04-02T08:35:47.443Z,2.25
2023-04-02T08:38:16.031Z,2.10
2023-04-02T08:40:47.569Z,1.95
2023-04-02T08:43:51.941Z,2.40
2023-04-02T08:46:26.717Z,2.03
2023-04-02T08:48:58.434Z,2.15
2023-04-02T08:51:28.272Z,2.83
2023-04-02T08:54:00.732Z,2.53
2023-04-02T08:56:36.897Z,1.83
2023-04-02T08:59:19.648Z,2.78
2023-04-02T09:01:55.189Z,2.47
2023-04-02T09:04:26.397Z,2.35
2023-04-02T09:06:56.301Z,2.08
2023-04-02T09:09:27.258Z,2.03
2023-04-02T09:15:20.742Z,2.38
2023-04-02T09:21:52.997Z,1.80
2023-04-02T09:24:20.273Z,1.67
2023-04-02T09:26:47.634Z,2.08
2023-04-02T09:29:40.070Z,1.70
2023-04-02T09:34:43.213Z,2.08
2023-04-02T09:37:23.044Z,1.42
2023-04-02T09:39:54.269Z,2.00
2023-04-02T09:42:31.322Z,1.60
2023-04-02T09:45:20.268Z,1.50
2023-04-02T09:47:58.258Z,1.70
2023-04-02T09:50:36.735Z,1.85
2023-04-02T09:53:27.967Z,1.40
2023-04-02T09:56:35.338Z,1.48
2023-04-02T10:04:03.300Z,1.63
2023-04-02T10:06:44.944Z,1.80
2023-04-02T10:13:22.087Z,1.42
2023-04-02T10:15:54.437Z,1.70
2023-04-02T10:18:31.409Z,2.10
2023-04-02T10:21:04.607Z,1.55
2023-04-02T10:23:35.215Z,1.65
2023-04-02T10:26:25.816Z,1.40
2023-04-02T10:29:15.183Z,1.70
2023-04-02T10:31:52.455Z,1.65
2023-04-02T10:34:25.050Z,1.58
2023-04-02T10:36:56.151Z,1.40
2023-04-02T10:39:29.925Z,1.50
2023-04-02T10:42:06.364Z,1.98
2023-04-02T10:44:47.138Z,1.73
2023-04-02T10:47:31.226Z,1.88
2023-04-02T10:50:18.876Z,1.40
2023-04-02T10:52:56.614Z,2.00
2023-04-02T10:55:32.178Z,1.60
2023-04-02T10:58:06.785Z,1.10
2023-04-02T11:00:42.025Z,1.92
2023-04-02T11:03:15.369Z,1.65
2023-04-02T11:05:49.162Z,1.55
2023-04-02T11:08:19.154Z,1.80
2023-04-02T11:10:50.990Z,2.53
2023-04-02T11:13:25.839Z,1.30
2023-04-02T11:15:59.147Z,1.85
2023-04-02T11:18:38.682Z,1.70
2023-04-02T11:21:07.509Z,1.52
2023-04-02T11:23:41.170Z,1.75
2023-04-02T11:26:34.367Z,1.60
2023-04-02T11:29:21.078Z,1.70
2023-04-02T11:35:05.712Z,2.05
2023-04-02T11:37:38.281Z,2.13
2023-04-02T11:40:40.865Z,1.77
2023-04-02T11:43:41.596Z,1.73
2023-04-02T11:46:45.688Z,1.85
2023-04-02T11:49:43.067Z,1.80
2023-04-02T11:52:22.769Z,1.65
2023-04-02T11:55:24.527Z,1.70
2023-04-02T11:58:02.390Z,1.92
2023-04-02T12:00:58.639Z,2.03
2023-04-02T12:03:48.621Z,1.45
2023-04-02T12:06:33.586Z,2.30
2023-04-02T12:09:15.152Z,1.77
2023-04-02T12:11:43.436Z,1.95
2023-04-02T12:14:36.201Z,1.70
2023-04-02T12:17:16.213Z,2.05
2023-04-02T12:19:57.438Z,1.60
2023-04-02T12:22:31.985Z,1.98
2023-04-02T12:25:06.330Z,2.05
2023-04-02T12:27:38.685Z,1.45
2023-04-02T12:30:17.044Z,1.42
2023-04-02T12:32:44.548Z,1.55
2023-04-02T12:35:29.680Z,1.85
2023-04-02T12:37:58.445Z,2.20
2023-04-02T12:40:27.188Z,2.00
2023-04-02T12:43:34.899Z,1.63
2023-04-02T12:46:05.031Z,2.28
2023-04-02T12:48:35.118Z,2.20
2023-04-02T12:51:05.467Z,1.73
2023-04-02T12:53:37.020Z,1.70
2023-04-02T12:56:06.186Z,1.60
2023-04-02T12:58:37.541Z,2.20
2023-04-02T13:01:14.555Z,1.63
2023-04-02T13:03:59.852Z,1.83
2023-04-02T13:06:31.162Z,1.45
2023-04-02T13:09:09.345Z,1.20
2023-04-02T13:11:38.245Z,1.88
2023-04-02T13:14:11.866Z,1.70
2023-04-02T13:16:41.007Z,1.90
2023-04-02T13:19:28.084Z,2.60
2023-04-02T13:22:01.476Z,1.95
2023-04-02T13:24:32.862Z,1.90
2023-04-02T13:27:04.191Z,1.70
2023-04-02T13:29:32.681Z,1.63
2023-04-02T13:32:02.952Z,1.75
2023-04-02T13:34:33.200Z,1.58
2023-04-02T13:37:02.183Z,1.60
2023-04-02T13:39:33.743Z,1.80
2023-04-02T13:42:03.804Z,1.40
2023-04-02T13:44:38.433Z,1.60
2023-04-02T13:47:06.502Z,1.40
2023-04-02T13:49:36.990Z,1.33
2023-04-02T13:52:16.106Z,1.48
2023-04-02T13:54:49.021Z,1.90
2023-04-02T13:57:16.770Z,1.35
2023-04-02T13:59:44.261Z,1.30
2023-04-02T14:02:17.299Z,1.38
2023-04-02T14:06:19.069Z,1.25
2023-04-02T14:08:54.836Z,1.50
2023-04-02T14:11:33.657Z,1.20
2023-04-02T14:14:27.613Z,1.45
2023-04-02T14:17:08.272Z,1.27
2023-04-02T14:19:53.504Z,1.25
2023-04-02T14:22:42.554Z,1.42
2023-04-02T14:25:38.448Z,1.13
2023-04-02T14:28:22.329Z,1.50
2023-04-02T14:31:05.124Z,1.70
2023-04-02T14:33:43.897Z,1.20
2023-04-02T14:36:23.702Z,1.23
2023-04-02T14:38:58.334Z,1.60
2023-04-02T14:41:39.840Z,1.15
2023-04-02T14:44:11.782Z,1.70
2023-04-02T14:46:39.716Z,1.38
2023-04-02T14:49:22.261Z,1.50
2023-04-02T14:51:53.831Z,1.63
2023-04-02T14:54:32.064Z,1.40
2023-04-02T14:57:07.447Z,1.60
2023-04-02T14:59:42.836Z,1.52
2023-04-02T15:02:22.241Z,1.52
2023-04-02T15:04:57.481Z,1.40
2023-04-02T15:07:33.469Z,1.50
2023-04-02T15:10:14.494Z,1.70
2023-04-02T15:12:44.349Z,1.60
2023-04-02T15:15:38.924Z,1.70
2023-04-02T15:18:14.408Z,1.30
2023-04-02T15:23:23.123Z,1.08
2023-04-02T15:26:00.397Z,1.08
2023-04-02T15:28:32.120Z,1.20
2023-04-02T15:31:12.709Z,1.80
2023-04-02T15:33:45.106Z,1.30
2023-04-02T15:36:40.436Z,1.52
2023-04-02T15:39:29.855Z,1.20
2023-04-02T15:42:13.335Z,1.30
2023-04-02T15:45:04.366Z,1.75
2023-04-02T15:47:44.268Z,1.60
2023-04-02T15:50:34.257Z,1.52
2023-04-02T15:53:15.865Z,1.40
2023-04-02T15:55:54.891Z,1.88
2023-04-02T15:58:36.054Z,1.50
2023-04-02T16:01:11.746Z,1.27
2023-04-02T16:03:53.363Z,1.30
2023-04-02T16:06:29.011Z,1.23
2023-04-02T16:09:22.070Z,1.42
2023-04-02T16:11:57.934Z,1.60
2023-04-02T16:14:30.722Z,1.95
2023-04-02T16:17:10.867Z,1.98
2023-04-02T16:19:51.373Z,2.03
2023-04-02T16:22:22.556Z,1.60
2023-04-02T16:25:03.048Z,1.20
2023-04-02T16:27:36.008Z,1.33
2023-04-02T16:30:43.882Z,1.33
2023-04-02T16:33:21.963Z,1.15
2023-04-02T16:36:01.192Z,1.23
2023-04-02T16:38:44.175Z,1.25
2023-04-02T16:41:25.377Z,1.30
2023-04-02T16:44:10.156Z,0.98
2023-04-02T16:46:54.732Z,1.45
2023-04-02T16:49:31.694Z,1.10
2023-04-02T16:52:11.629Z,0.95
2023-04-02T16:54:50.063Z,1.20
2023-04-02T16:57:31.980Z,1.17
2023-04-02T17:00:12.086Z,1.45
2023-04-02T17:02:51.190Z,1.50
2023-04-02T17:05:31.298Z,1.38
2023-04-02T17:08:14.109Z,1.20
2023-04-02T17:10:50.498Z,0.93
2023-04-02T17:13:24.364Z,1.15
2023-04-02T17:16:06.784Z,1.50
2023-04-02T17:18:58.472Z,1.15
2023-04-02T17:21:28.368Z,1.20
2023-04-02T17:24:02.223Z,1.00
2023-04-02T17:26:33.031Z,1.30
2023-04-02T17:29:06.956Z,0.95
2023-04-02T17:31:36.003Z,1.10
2023-04-02T17:34:12.827Z,1.70
2023-04-02T17:36:47.239Z,1.40
2023-04-02T17:39:23.656Z,1.80
2023-04-02T17:41:56.467Z,1.50
2023-04-02T17:44:41.448Z,1.65
2023-04-02T17:47:16.323Z,1.20
2023-04-02T17:49:58.115Z,1.17
2023-04-02T17:52:29.873Z,1.20
2023-04-02T17:55:09.695Z,1.02
2023-04-02T17:57:52.639Z,1.30
2023-04-02T18:00:34.946Z,1.52
2023-04-02T18:03:31.828Z,1.55
2023-04-02T18:06:03.693Z,1.40
2023-04-02T18:08:42.979Z,1.40
2023-04-02T18:11:14.640Z,1.20
2023-04-02T18:13:46.020Z,1.30
2023-04-02T18:16:22.098Z,1.42
2023-04-02T18:19:03.742Z,1.38
2023-04-02T18:22:00.923Z,1.77
2023-04-02T18:25:00.835Z,1.58
2023-04-02T18:27:55.362Z,1.48
2023-04-02T18:30:32.013Z,1.65
2023-04-02T18:33:25.542Z,1.95
2023-04-02T18:36:23.780Z,1.67
2023-04-02T18:42:16.633Z,1.90
2023-04-02T18:45:14.103Z,1.77
2023-04-02T18:47:49.281Z,1.90
2023-04-02T18:50:20.959Z,1.60
2023-04-02T18:52:50.877Z,1.63
2023-04-02T18:55:45.400Z,1.77
2023-04-02T18:58:25.592Z,1.77
2023-04-02T19:00:55.946Z,1.92
2023-04-02T19:03:31.633Z,1.77
2023-04-02T19:06:14.189Z,1.95
2023-04-02T19:08:48.321Z,1.67
2023-04-02T19:11:19.192Z,1.92
2023-04-02T19:14:09.175Z,1.63
2023-04-02T19:16:56.347Z,1.40
2023-04-02T19:19:31.153Z,1.55
2023-04-02T19:22:24.023Z,1.67
2023-04-02T19:25:33.251Z,1.58
2023-04-02T19:28:12.027Z,1.90
2023-04-02T19:31:09.434Z,1.60
2023-04-02T19:33:52.917Z,1.35
2023-04-02T19:36:41.673Z,1.52
2023-04-02T19:39:41.019Z,1.40
2023-04-02T19:42:19.333Z,1.35
2023-04-02T19:44:54.525Z,1.17
2023-04-02T19:47:26.046Z,1.23
2023-04-02T19:50:18.119Z,1.38
2023-04-02T19:52:46.029Z,1.20
2023-04-02T19:55:13.841Z,1.35
2023-04-02T19:57:46.316Z,1.52
2023-04-02T20:00:17.805Z,1.58
2023-04-02T20:02:44.856Z,1.48
2023-04-02T20:05:14.242Z,1.38
2023-04-02T20:07:41.573Z,1.40
2023-04-02T20:10:10.415Z,1.00
2023-04-02T20:12:38.028Z,0.98
2023-04-02T20:15:07.632Z,1.60
2023-04-02T20:17:38.059Z,1.30
2023-04-02T20:20:17.841Z,1.40
2023-04-02T20:22:55.159Z,1.33
2023-04-02T20:25:23.098Z,1.20
2023-04-02T20:27:53.538Z,1.40
2023-04-02T20:30:20.725Z,1.10
2023-04-02T20:32:51.867Z,1.02
2023-04-02T20:35:21.507Z,1.25
2023-04-02T20:37:49.111Z,1.35
2023-04-02T20:40:17.663Z,1.20
2023-04-02T20:42:45.135Z,2.20
2023-04-02T20:45:13.079Z,1.35
2023-04-02T20:47:40.729Z,1.50
2023-04-02T20:50:09.122Z,1.33
2023-04-02T20:55:09.771Z,1.50
2023-04-02T20:57:37.524Z,1.63
2023-04-02T21:00:06.769Z,1.15
2023-04-02T21:02:34.836Z,1.60
2023-04-02T21:05:02.232Z,1.30
2023-04-02T21:07:29.766Z,1.17
2023-04-02T21:09:58.602Z,1.25
2023-04-02T21:12:25.807Z,1.98
2023-04-02T21:15:00.229Z,1.30
2023-04-02T21:17:29.685Z,1.80
2023-04-02T21:19:57.257Z,1.15
2023-04-02T21:22:24.650Z,1.73
2023-04-02T21:24:52.117Z,1.80
2023-04-02T21:27:25.843Z,1.85
2023-04-02T21:29:53.355Z,1.70
2023-04-02T21:32:22.019Z,1.10
2023-04-02T21:34:50.117Z,1.63
2023-04-02T21:37:20.109Z,1.30
2023-04-02T21:39:49.315Z,1.30
2023-04-02T21:42:18.523Z,1.40
2023-04-02T21:44:47.208Z,1.27
2023-04-02T21:47:14.678Z,1.40
2023-04-02T21:49:42.014Z,0.95
2023-04-02T21:52:09.165Z,1.20
2023-04-02T21:54:36.495Z,1.30
2023-04-02T21:57:07.034Z,1.40
2023-04-02T21:59:34.917Z,1.40
2023-04-02T22:02:04.867Z,1.50
2023-04-02T22:04:33.465Z,1.35
2023-04-02T22:07:02.117Z,1.33
2023-04-02T22:09:29.976Z,1.38
2023-04-02T22:11:59.492Z,1.27
2023-04-02T22:14:28.772Z,1.33
2023-04-02T22:16:58.870Z,1.40
2023-04-02T22:19:33.063Z,1.40
2023-04-02T22:22:02.892Z,1.50
2023-04-02T22:24:30.708Z,1.70
2023-04-02T22:26:57.745Z,1.88
2023-04-02T22:29:24.970Z,1.77
2023-04-02T22:31:52.141Z,1.73
2023-04-02T22:34:19.692Z,2.10
2023-04-02T22:36:49.034Z,1.50
2023-04-02T22:39:31.129Z,1.77
2023-04-02T22:42:00.306Z,1.63
2023-04-02T22:44:28.217Z,1.65
2023-04-02T22:46:59.095Z,1.95
2023-04-02T22:51:01.685Z,1.35
2023-04-02T22:53:57.940Z,1.75
2023-04-02T22:56:28.960Z,1.77
2023-04-02T22:59:07.037Z,2.08
2023-04-02T23:01:44.578Z,2.00
2023-04-02T23:04:12.236Z,1.20
2023-04-02T23:06:39.776Z,1.60
2023-04-02T23:09:08.628Z,1.70
2023-04-02T23:11:35.939Z,1.52
2023-04-02T23:14:03.317Z,1.52
2023-04-02T23:16:58.416Z,1.52
2023-04-02T23:19:25.864Z,1.10
2023-04-02T23:22:11.764Z,1.33
2023-04-02T23:24:40.584Z,1.40
2023-04-02T23:27:12.238Z,1.20
2023-04-02T23:29:42.863Z,1.63
2023-04-02T23:32:20.848Z,1.75
2023-04-02T23:41:03.253Z,1.25
2023-04-02T23:43:33.546Z,1.30
2023-04-02T23:46:03.534Z,1.40
2023-04-02T23:48:33.471Z,1.13
2023-04-02T23:51:02.643Z,1.42
2023-04-02T23:53:33.601Z,1.35
2023-04-02T23:56:02.140Z,1.50
2023-04-02T23:58:29.642Z,1.30
